KHFF/HFF METAR and TAF weather

Enter ICAO airport designator
Station Type Date Time Source
KHFF METAR 2020/12/06 01:56 UTC NOAA

KHFF 060156Z AUTO 00000KT 10SM CLR 02/01 A3004 RMK AO2 SLP190 T00220010


Station Type Date Time Source
KHFF Decoded METAR 2020/12/06 01:56 UTC NOAA

Mackall U. S. Army Airfield, NC, United States (KHFF) 35-02N 079-30W
Dec 05, 2020 - 08:56 PM EST / 2020.12.06 0156 UTC
Wind: Calm:0
Visibility: 10 mile(s):0
Sky conditions: clear
Temperature: 36.0 F (2.2 C)
Dew Point: 33.8 F (1.0 C)
Relative Humidity: 91%
Pressure (altimeter): 30.04 in. Hg (1017 hPa)
ob: KHFF 060156Z AUTO 00000KT 10SM CLR 02/01 A3004 RMK AO2 SLP190 T00220010
cycle: 2

Station Type Date Time Source
KHFF TAF UTC NOAA

Error!

Example: see airport list